createdAt,value
2023-01-30T00:04:02.038Z,63.15
2023-01-30T00:09:04.277Z,60.17
2023-01-30T00:14:06.279Z,60.25
2023-01-30T00:19:08.083Z,62.94
2023-01-30T00:24:10.104Z,60.48
2023-01-30T00:29:12.206Z,60.14
2023-01-30T00:34:18.712Z,62.91
2023-01-30T00:39:20.574Z,60.51
2023-01-30T00:44:40.994Z,59.38
2023-01-30T00:49:43.451Z,63.32
2023-01-30T00:54:45.301Z,61.85
2023-01-30T00:59:49.736Z,60.50
2023-01-30T01:04:52.381Z,61.89
2023-01-30T01:09:54.367Z,63.49
2023-01-30T01:14:56.132Z,60.74
2023-01-30T01:19:58.186Z,59.92
2023-01-30T01:25:01.789Z,60.19
2023-01-30T01:30:04.296Z,63.75
2023-01-30T01:35:06.301Z,61.82
2023-01-30T01:40:27.112Z,59.12
2023-01-30T01:45:29.623Z,64.40
2023-01-30T01:50:40.676Z,62.09
2023-01-30T01:55:44.786Z,60.47
2023-01-30T02:00:47.976Z,61.20
2023-01-30T02:05:51.654Z,59.61
2023-01-30T02:11:00.484Z,63.41
2023-01-30T02:16:04.607Z,63.39
2023-01-30T02:21:26.755Z,61.58
2023-01-30T02:26:47.348Z,61.73
2023-01-30T02:31:52.489Z,62.60
2023-01-30T02:36:55.262Z,62.05
2023-01-30T02:42:00.848Z,62.58
2023-01-30T02:47:02.806Z,62.51
2023-01-30T02:52:06.832Z,62.70
2023-01-30T02:57:18.639Z,62.49
2023-01-30T03:02:32.741Z,62.96
2023-01-30T03:07:43.758Z,63.12
2023-01-30T03:12:45.831Z,62.66
2023-01-30T03:17:48.142Z,62.82
2023-01-30T03:22:51.474Z,61.97
2023-01-30T03:27:54.636Z,61.25
2023-01-30T03:32:56.763Z,60.90
2023-01-30T03:37:58.903Z,59.89
2023-01-30T03:43:00.863Z,62.36
2023-01-30T03:48:03.389Z,63.95
2023-01-30T03:53:05.915Z,62.27
2023-01-30T03:58:07.731Z,61.19
2023-01-30T04:03:09.669Z,61.22
2023-01-30T04:08:14.005Z,61.14
2023-01-30T04:13:17.234Z,60.44
2023-01-30T04:18:19.313Z,60.28
2023-01-30T04:23:33.384Z,60.64
2023-01-30T04:28:35.335Z,60.05
2023-01-30T04:33:39.945Z,63.41
2023-01-30T04:38:42.536Z,61.46
2023-01-30T04:43:44.755Z,60.59
2023-01-30T04:49:14.691Z,60.21
2023-01-30T04:54:18.671Z,63.58
2023-01-30T04:59:20.465Z,62.04
2023-01-30T05:04:23.069Z,60.77
2023-01-30T05:09:25.335Z,60.63
2023-01-30T05:14:27.107Z,60.38
2023-01-30T05:19:28.903Z,59.47
2023-01-30T05:24:30.707Z,63.36
2023-01-30T05:29:32.480Z,62.42
2023-01-30T05:34:34.358Z,60.88
2023-01-30T05:39:36.121Z,59.58
2023-01-30T05:44:37.822Z,61.68
2023-01-30T05:49:39.608Z,62.74
2023-01-30T05:54:41.333Z,60.57
2023-01-30T05:59:43.133Z,59.22
2023-01-30T06:04:44.872Z,62.81
2023-01-30T06:09:46.679Z,60.95
2023-01-30T06:14:48.416Z,61.52
2023-01-30T06:19:50.740Z,62.29
2023-01-30T06:24:52.521Z,59.41
2023-01-30T06:29:54.308Z,61.52
2023-01-30T06:34:56.149Z,62.23
2023-01-30T06:39:57.905Z,59.09
2023-01-30T06:44:59.715Z,62.02
2023-01-30T06:50:01.516Z,62.41
2023-01-30T06:55:03.540Z,60.05
2023-01-30T07:00:06.637Z,59.78
2023-01-30T07:05:09.549Z,63.04
2023-01-30T07:10:12.156Z,61.23
2023-01-30T07:15:13.985Z,60.07
2023-01-30T07:20:16.526Z,63.39
2023-01-30T07:25:19.014Z,61.06
2023-01-30T07:30:21.293Z,59.66
2023-01-30T07:35:23.949Z,60.89
2023-01-30T07:40:26.796Z,63.37
2023-01-30T07:45:30.211Z,61.29
2023-01-30T07:50:32.008Z,60.32
2023-01-30T07:55:34.177Z,59.99
2023-01-30T08:00:36.274Z,60.54
2023-01-30T08:05:38.088Z,60.18
2023-01-30T08:10:39.937Z,59.63
2023-01-30T08:15:41.749Z,63.45
2023-01-30T08:20:43.534Z,62.30
2023-01-30T08:25:45.335Z,59.53
2023-01-30T08:30:47.446Z,61.46
2023-01-30T08:35:49.178Z,63.65
2023-01-30T08:40:50.951Z,64.08
2023-01-30T08:45:56.964Z,61.85
2023-01-30T08:50:58.822Z,60.42
2023-01-30T08:56:00.710Z,59.99
2023-01-30T09:01:06.664Z,59.85
2023-01-30T09:06:08.878Z,59.67
2023-01-30T09:12:41.571Z,60.34
2023-01-30T09:17:44.799Z,62.92
2023-01-30T09:22:46.793Z,61.05
2023-01-30T09:27:49.752Z,59.73
2023-01-30T09:32:51.700Z,62.72
2023-01-30T09:37:54.145Z,61.84
2023-01-30T09:42:58.783Z,60.27
2023-01-30T09:48:05.167Z,59.97
2023-01-30T09:53:17.434Z,60.32
2023-01-30T09:58:20.754Z,59.90
2023-01-30T10:03:41.852Z,60.08
2023-01-30T10:08:49.484Z,60.59
2023-01-30T10:13:51.300Z,61.15
2023-01-30T10:18:53.283Z,62.22
2023-01-30T10:24:13.398Z,62.49
2023-01-30T10:29:18.327Z,62.97
2023-01-30T10:34:34.596Z,62.27
2023-01-30T10:39:54.315Z,61.02
2023-01-30T10:45:02.341Z,60.02
2023-01-30T10:50:16.557Z,60.63
2023-01-30T10:55:38.865Z,60.77
2023-01-30T11:00:40.759Z,60.54
2023-01-30T11:05:53.112Z,61.04
2023-01-30T11:10:55.813Z,60.91
2023-01-30T11:15:59.704Z,61.17
2023-01-30T11:21:01.519Z,60.18
2023-01-30T11:26:11.213Z,60.76
2023-01-30T11:31:28.307Z,61.78
2023-01-30T11:36:38.212Z,62.67
2023-01-30T11:41:44.084Z,64.24
2023-01-30T11:46:45.940Z,63.98
2023-01-30T11:51:52.341Z,62.85
2023-01-30T11:56:56.478Z,62.75
2023-01-30T12:02:06.170Z,61.24
2023-01-30T12:07:16.633Z,60.67
2023-01-30T12:12:29.977Z,60.70
2023-01-30T12:17:42.842Z,60.85
2023-01-30T12:22:53.957Z,60.47
2023-01-30T12:28:01.700Z,61.47
2023-01-30T12:33:05.012Z,63.33
2023-01-30T12:38:13.923Z,65.33
2023-01-30T12:43:34.196Z,66.94
2023-01-30T12:49:10.919Z,66.35
2023-01-30T12:54:27.410Z,66.18
2023-01-30T12:59:36.309Z,65.37
2023-01-30T13:05:01.726Z,65.31
2023-01-30T13:10:34.699Z,64.84
2023-01-30T13:15:45.485Z,65.23
2023-01-30T13:20:50.670Z,65.18
2023-01-30T13:25:52.629Z,64.56
2023-01-30T13:30:55.300Z,65.05
2023-01-30T13:35:57.390Z,65.46
2023-01-30T13:41:00.463Z,64.67
2023-01-30T13:46:17.081Z,64.16
2023-01-30T13:51:37.630Z,63.47
2023-01-30T13:56:43.200Z,63.07
2023-01-30T14:02:15.069Z,62.76
2023-01-30T14:08:01.677Z,62.85
2023-01-30T14:57:57.735Z,62.73
2023-01-30T15:03:01.886Z,62.85
2023-01-30T15:08:09.791Z,63.64
2023-01-30T15:13:24.748Z,63.42
2023-01-30T15:18:45.764Z,64.15
2023-01-30T15:23:50.576Z,64.53
2023-01-30T15:28:52.338Z,65.22
2023-01-30T15:34:14.107Z,64.85
2023-01-30T15:39:18.563Z,64.86
2023-01-30T15:44:27.755Z,64.06
2023-01-30T15:49:47.939Z,64.27
2023-01-30T15:54:51.700Z,64.45
2023-01-30T15:59:54.420Z,64.13
2023-01-30T16:05:03.982Z,64.21
2023-01-30T16:10:11.680Z,63.48
2023-01-30T16:15:19.594Z,61.70
2023-01-30T16:20:22.334Z,59.57
2023-01-30T16:25:26.035Z,62.54
2023-01-30T16:30:29.429Z,62.28
2023-01-30T16:35:33.826Z,60.61
2023-01-30T16:40:45.961Z,59.60
2023-01-30T16:45:47.833Z,62.33
2023-01-30T16:50:58.958Z,61.71
2023-01-30T16:56:04.496Z,59.44
2023-01-30T17:01:08.404Z,62.56
2023-01-30T17:06:20.034Z,62.12
2023-01-30T17:11:38.096Z,59.95
2023-01-30T17:16:41.529Z,60.65
2023-01-30T17:21:45.716Z,63.12
2023-01-30T17:26:49.223Z,60.78
2023-01-30T17:31:51.818Z,59.63
2023-01-30T17:36:54.682Z,63.70
2023-01-30T17:41:56.481Z,61.31
2023-01-30T17:46:58.262Z,59.53
2023-01-30T17:52:00.382Z,62.67
2023-01-30T17:57:04.823Z,62.46
2023-01-30T18:02:09.197Z,60.26
2023-01-30T18:07:12.801Z,58.93
2023-01-30T18:12:14.743Z,63.17
2023-01-30T18:17:17.052Z,61.04
2023-01-30T18:22:18.911Z,59.86
2023-01-30T18:27:20.698Z,62.90
2023-01-30T18:32:22.538Z,59.51
2023-01-30T18:37:25.514Z,61.78
2023-01-30T18:42:27.266Z,62.09
2023-01-30T18:47:29.141Z,59.33
2023-01-30T18:52:30.936Z,62.89
2023-01-30T18:57:32.686Z,60.34
2023-01-30T19:02:34.890Z,61.33
2023-01-30T19:07:36.852Z,62.53
2023-01-30T19:12:57.692Z,59.43
2023-01-30T19:17:59.513Z,62.57
2023-01-30T19:23:01.339Z,61.13
2023-01-30T19:28:03.445Z,60.81
2023-01-30T19:33:05.323Z,62.92
2023-01-30T19:38:07.581Z,61.21
2023-01-30T19:43:11.764Z,59.46
2023-01-30T19:48:13.653Z,62.30
2023-01-30T19:53:16.099Z,62.10
2023-01-30T19:58:18.195Z,61.63
2023-01-30T20:03:20.123Z,62.18
2023-01-30T20:08:31.953Z,64.23
2023-01-30T20:13:35.426Z,65.89
2023-01-30T20:18:40.172Z,67.05
2023-01-30T20:23:42.023Z,69.73
2023-01-30T20:28:43.874Z,72.13
2023-01-30T20:33:46.109Z,71.74
2023-01-30T20:38:48.844Z,71.64
2023-01-30T20:44:00.819Z,71.71
2023-01-30T20:49:03.200Z,70.90
2023-01-30T20:54:06.242Z,70.98
2023-01-30T20:59:08.350Z,70.23
2023-01-30T21:04:13.705Z,68.40
2023-01-30T21:09:17.174Z,67.57
2023-01-30T21:14:18.982Z,65.28
2023-01-30T21:19:21.894Z,63.37
2023-01-30T21:24:28.699Z,62.92
2023-01-30T21:29:30.645Z,61.63
2023-01-30T21:34:35.163Z,63.73
2023-01-30T21:39:55.700Z,63.97
2023-01-30T21:44:58.329Z,65.11
2023-01-30T21:50:00.242Z,65.64
2023-01-30T21:55:02.474Z,65.43
2023-01-30T22:00:04.859Z,65.18
2023-01-30T22:05:07.592Z,65.01
2023-01-30T22:10:09.915Z,65.20
2023-01-30T22:15:21.950Z,66.32
2023-01-30T22:20:24.049Z,68.09
2023-01-30T22:25:26.123Z,69.27
2023-01-30T22:30:27.974Z,70.37
2023-01-30T22:35:29.804Z,70.84
2023-01-30T22:40:32.243Z,70.35
2023-01-30T22:45:37.077Z,70.23
2023-01-30T22:50:39.052Z,69.65
2023-01-30T22:55:40.866Z,72.53
2023-01-30T23:00:42.781Z,74.37
2023-01-30T23:05:44.677Z,75.47
2023-01-30T23:10:46.666Z,76.74
2023-01-30T23:15:48.487Z,76.77
2023-01-30T23:20:50.208Z,76.66
2023-01-30T23:25:52.333Z,78.82
2023-01-30T23:30:54.111Z,78.73
2023-01-30T23:36:00.216Z,78.35
2023-01-30T23:41:05.231Z,77.90
2023-01-30T23:46:27.262Z,78.61
2023-01-30T23:51:30.508Z,79.20
2023-01-30T23:56:33.593Z,79.13
